Time;durP1;ratioP1;P1;durP2;ratioP2;P2;SDS_P1;SDS_P2;PMS_P1;PMS_P2;Temp;Humidity;BMP_temperature;BMP_pressure;BME280_temperature;BME280_humidity;BME280_pressure;Samples;Min_cycle;Max_cycle;Signal;HPM_P1;HPM_P2
2023/03/22 00:00:14;;;;;;;10.73;3.30;;;;;;;9.11;100.00;100808.09;5058585;28;20045;-59
2023/03/22 00:02:42;;;;;;;11.80;3.58;;;;;;;9.10;100.00;100807.22;5060926;28;20063;-59
2023/03/22 00:05:11;;;;;;;9.32;2.90;;;;;;;9.07;100.00;100811.84;5068286;28;20135;-59
2023/03/22 00:07:40;;;;;;;10.05;3.13;;;;;;;9.03;100.00;100799.84;5058556;28;20040;-59
2023/03/22 00:10:10;;;;;;;8.57;2.60;;;;;;;9.02;100.00;100798.13;5061374;28;20045;-59
2023/03/22 00:12:38;;;;;;;9.57;3.10;;;;;;;9.01;100.00;100797.28;5057029;28;20127;-59
2023/03/22 00:15:08;;;;;;;9.63;2.50;;;;;;;9.04;100.00;100796.25;5057777;28;20094;-59
2023/03/22 00:17:38;;;;;;;10.65;2.83;;;;;;;9.03;100.00;100799.84;5047785;28;20045;-59
2023/03/22 00:20:08;;;;;;;10.40;2.67;;;;;;;9.04;100.00;100793.63;5052427;28;20162;-59
2023/03/22 00:22:36;;;;;;;10.20;3.38;;;;;;;9.02;100.00;100796.34;5054489;28;20052;-58
2023/03/22 00:25:06;;;;;;;8.27;3.45;;;;;;;8.99;100.00;100793.91;5052249;28;20677;-60
2023/03/22 00:27:34;;;;;;;8.02;3.10;;;;;;;9.02;100.00;100798.13;5056265;28;20542;-58
2023/03/22 00:30:04;;;;;;;8.07;2.80;;;;;;;8.95;100.00;100782.75;5057549;28;20488;-59
2023/03/22 00:32:35;;;;;;;10.35;3.20;;;;;;;8.89;100.00;100784.88;5058735;28;20045;-59
2023/03/22 00:35:06;;;;;;;10.23;2.92;;;;;;;8.89;100.00;100777.88;5054690;28;20403;-59
2023/03/22 00:37:37;;;;;;;9.18;3.15;;;;;;;8.84;100.00;100784.34;5053987;28;20044;-58
2023/03/22 00:40:09;;;;;;;8.65;2.85;;;;;;;8.82;100.00;100780.94;5055160;28;20155;-59
2023/03/22 00:42:38;;;;;;;9.25;3.08;;;;;;;8.78;100.00;100777.66;5059136;28;20403;-58
2023/03/22 00:45:08;;;;;;;10.90;3.50;;;;;;;8.73;100.00;100777.94;5061070;28;20072;-59
2023/03/22 00:47:38;;;;;;;;;;;;;;;8.72;100.00;100771.00;5061604;28;20119;-59
2023/03/22 00:50:10;;;;;;;9.15;3.30;;;;;;;8.70;100.00;100775.50;5054835;28;20017;-58
2023/03/22 00:52:38;;;;;;;12.20;3.33;;;;;;;8.71;100.00;100774.56;5059442;28;20827;-59
2023/03/22 00:55:07;;;;;;;11.82;3.50;;;;;;;8.67;100.00;100766.97;5053049;28;20124;-59
2023/03/22 00:57:36;;;;;;;9.40;3.63;;;;;;;8.68;100.00;100758.16;5051657;28;21801;-59
2023/03/22 01:00:09;;;;;;;12.00;4.05;;;;;;;8.63;100.00;100755.81;5054803;28;20048;-60
2023/03/22 01:02:38;;;;;;;13.85;4.13;;;;;;;8.60;100.00;100756.84;5063428;28;20163;-60
2023/03/22 01:05:14;;;;;;;11.73;4.35;;;;;;;8.62;100.00;100759.38;5071655;28;20045;-59
2023/03/22 01:07:43;;;;;;;9.77;3.80;;;;;;;8.56;100.00;100750.09;5067444;28;20052;-59
2023/03/22 01:10:12;;;;;;;9.80;4.15;;;;;;;8.55;100.00;100743.16;5074463;28;20400;-59
2023/03/22 01:12:40;;;;;;;12.32;4.13;;;;;;;8.51;100.00;100741.63;5074631;28;20048;-59
2023/03/22 01:15:10;;;;;;;9.75;4.07;;;;;;;8.59;100.00;100738.59;5070818;28;20392;-59
2023/03/22 01:17:39;;;;;;;10.15;3.75;;;;;;;8.63;100.00;100729.59;5071421;28;20132;-59
2023/03/22 01:20:10;;;;;;;9.70;3.65;;;;;;;8.57;100.00;100729.94;5073110;28;20110;-59
2023/03/22 01:22:40;;;;;;;9.50;3.92;;;;;;;8.55;100.00;100729.19;5071185;28;20387;-59
2023/03/22 01:25:09;;;;;;;10.27;4.00;;;;;;;8.51;100.00;100715.44;5069680;28;20470;-59
2023/03/22 01:27:40;;;;;;;10.60;3.20;;;;;;;8.49;100.00;100712.03;5071012;28;20491;-59
2023/03/22 01:30:10;;;;;;;8.98;3.85;;;;;;;8.51;100.00;100710.19;5071514;28;20131;-59
2023/03/22 01:32:38;;;;;;;9.45;3.42;;;;;;;8.48;100.00;100709.50;5066919;28;20037;-59
2023/03/22 01:35:09;;;;;;;11.68;4.47;;;;;;;8.46;100.00;100707.81;5056821;28;20051;-59
2023/03/22 01:37:38;;;;;;;8.63;3.17;;;;;;;8.44;100.00;100699.19;5055280;28;20978;-59
2023/03/22 01:40:08;;;;;;;11.70;3.67;;;;;;;8.45;100.00;100697.44;5055039;28;20381;-59
2023/03/22 01:42:36;;;;;;;7.78;3.70;;;;;;;8.39;100.00;100685.50;5056881;28;20100;-58
2023/03/22 01:45:40;;;;;;;12.68;3.47;;;;;;;8.40;100.00;100686.38;5057204;28;20060;-58
2023/03/22 01:48:14;;;;;;;11.00;4.28;;;;;;;8.39;100.00;100676.81;5054036;28;20051;-58
2023/03/22 01:50:49;;;;;;;12.20;4.32;;;;;;;8.39;100.00;100677.63;5050367;28;20553;-59
2023/03/22 01:53:22;;;;;;;10.90;4.47;;;;;;;8.44;100.00;100669.53;5055822;28;20407;-59
2023/03/22 01:55:52;;;;;;;10.48;4.95;;;;;;;8.51;100.00;100664.78;5053821;28;20444;-59
2023/03/22 01:58:21;;;;;;;10.45;4.40;;;;;;;8.52;100.00;100659.47;5057362;28;20083;-59
2023/03/22 02:00:51;;;;;;;10.15;4.07;;;;;;;8.53;100.00;100650.63;5053961;28;20052;-59
2023/03/22 02:03:28;;;;;;;11.30;4.90;;;;;;;8.51;100.00;100644.66;5058291;28;20498;-59
2023/03/22 02:05:58;;;;;;;10.73;4.72;;;;;;;8.50;100.00;100644.75;5051486;28;20064;-58
2023/03/22 02:08:26;;;;;;;10.90;4.70;;;;;;;8.46;100.00;100639.69;5060208;28;20033;-58
2023/03/22 02:10:55;;;;;;;9.77;4.07;;;;;;;8.49;100.00;100633.41;5059354;28;20068;-59
2023/03/22 02:13:41;;;;;;;12.40;4.80;;;;;;;8.46;100.00;100629.19;5058427;28;20049;-59
2023/03/22 02:16:23;;;;;;;12.13;5.20;;;;;;;8.47;100.00;100630.06;5059348;28;20045;-58
2023/03/22 02:19:07;;;;;;;18.33;6.15;;;;;;;8.49;100.00;100622.94;5059193;28;20052;-59
2023/03/22 02:22:20;;;;;;;13.15;6.22;;;;;;;8.52;100.00;100612.28;5055151;28;20514;-59
2023/03/22 02:25:19;;;;;;;14.32;6.95;;;;;;;8.48;100.00;100616.03;5048660;28;20191;-58
2023/03/22 02:28:05;;;;;;;15.73;7.80;;;;;;;8.48;100.00;100610.78;5057426;28;20049;-59
2023/03/22 02:31:02;;;;;;;15.70;8.25;;;;;;;8.56;100.00;100610.28;5057066;28;20073;-59
2023/03/22 02:33:59;;;;;;;16.42;9.10;;;;;;;8.59;100.00;100597.84;5055803;28;20064;-59
2023/03/22 02:36:54;;;;;;;18.70;9.63;;;;;;;8.60;100.00;100602.19;5056319;28;20095;-58
2023/03/22 02:39:35;;;;;;;14.95;9.65;;;;;;;8.72;100.00;100602.34;5069463;28;20057;-58
2023/03/22 02:42:16;;;;;;;17.02;9.27;;;;;;;8.64;100.00;100605.44;5069563;28;20048;-58
2023/03/22 02:44:50;;;;;;;14.68;9.50;;;;;;;8.62;100.00;100600.28;5069306;28;20089;-58
2023/03/22 02:47:23;;;;;;;15.40;9.43;;;;;;;8.65;100.00;100601.06;5072702;28;20052;-58
2023/03/22 02:49:58;;;;;;;18.30;10.60;;;;;;;8.66;100.00;100593.09;5064304;28;20049;-58
2023/03/22 02:52:38;;;;;;;19.55;10.20;;;;;;;8.75;100.00;100596.91;5052335;28;20049;-59
2023/03/22 02:55:15;;;;;;;15.80;10.20;;;;;;;8.67;100.00;100591.28;5054524;28;20049;-59
2023/03/22 02:57:49;;;;;;;20.02;10.43;;;;;;;8.75;100.00;100586.44;5069473;28;20044;-59
2023/03/22 03:00:19;;;;;;;15.75;10.25;;;;;;;8.62;100.00;100576.69;5069171;28;20060;-58
2023/03/22 03:02:53;;;;;;;15.45;10.57;;;;;;;8.59;100.00;100583.91;5058626;28;20503;-59
2023/03/22 03:05:23;;;;;;;17.33;9.77;;;;;;;8.67;100.00;100578.19;5054195;28;20759;-59
2023/03/22 03:07:57;;;;;;;16.90;10.98;;;;;;;8.65;100.00;100577.47;5059428;28;20086;-59
2023/03/22 03:10:27;;;;;;;19.73;10.88;;;;;;;8.68;100.00;100566.78;5065253;28;20571;-59
2023/03/22 03:12:56;;;;;;;19.55;10.15;;;;;;;8.65;100.00;100566.97;5054712;28;20978;-59
2023/03/22 03:15:25;;;;;;;17.45;11.38;;;;;;;8.63;100.00;100567.91;5050887;28;20098;-58
2023/03/22 03:18:19;;;;;;;16.10;10.60;;;;;;;8.65;100.00;100564.34;5056347;28;20888;-58
2023/03/22 03:20:59;;;;;;;16.15;9.90;;;;;;;8.71;100.00;100556.94;5054214;28;20060;-59
2023/03/22 03:23:37;;;;;;;19.27;10.93;;;;;;;8.68;100.00;100564.16;5056720;28;20565;-59
2023/03/22 03:26:13;;;;;;;18.33;11.30;;;;;;;8.67;100.00;100562.47;5054473;28;20041;-59
2023/03/22 03:28:49;;;;;;;18.63;10.27;;;;;;;8.73;100.00;100549.81;5057967;28;20526;-59
2023/03/22 03:31:28;;;;;;;16.10;10.07;;;;;;;8.68;100.00;100556.28;5054380;28;20144;-58
2023/03/22 03:34:05;;;;;;;15.20;10.18;;;;;;;8.66;100.00;100547.66;5058305;28;20098;-58
2023/03/22 03:36:37;;;;;;;16.15;9.32;;;;;;;8.75;100.00;100553.19;5048833;28;20040;-58
2023/03/22 03:39:12;;;;;;;13.88;9.40;;;;;;;8.80;100.00;100550.28;5058120;28;20056;-59
2023/03/22 03:41:44;;;;;;;16.73;8.77;;;;;;;8.85;100.00;100549.97;5052951;28;20045;-59
2023/03/22 03:44:14;;;;;;;12.80;8.50;;;;;;;8.87;100.00;100548.94;5054597;28;20048;-58
2023/03/22 03:46:44;;;;;;;14.30;8.23;;;;;;;8.93;100.00;100545.09;5052935;28;20530;-50
2023/03/22 03:49:14;;;;;;;17.00;7.68;;;;;;;9.03;100.00;100542.75;5047013;28;20109;-52
2023/03/22 03:51:48;;;;;;;12.27;7.82;;;;;;;9.05;100.00;100551.34;5049499;28;20049;-52
2023/03/22 03:54:16;;;;;;;14.50;7.72;;;;;;;9.05;100.00;100551.34;5050137;28;20052;-53
2023/03/22 03:56:47;;;;;;;16.90;7.75;;;;;;;9.12;100.00;100552.63;5052434;28;20097;-53
2023/03/22 03:59:15;;;;;;;16.00;8.23;;;;;;;9.10;100.00;100555.38;5055194;28;20044;-51
2023/03/22 04:01:49;;;;;;;15.52;7.78;;;;;;;9.03;100.00;100550.63;5051785;28;20506;-55
2023/03/22 04:04:24;;;;;;;14.02;7.25;;;;;;;9.05;100.00;100551.34;5058932;28;20083;-52
2023/03/22 04:06:55;;;;;;;11.88;6.95;;;;;;;9.05;100.00;100552.22;5058878;28;20106;-53
2023/03/22 04:09:25;;;;;;;12.77;6.97;;;;;;;9.06;100.00;100547.81;5064875;28;20107;-53
2023/03/22 04:11:56;;;;;;;13.00;6.80;;;;;;;9.06;100.00;100553.88;5059523;28;20135;-53
2023/03/22 04:14:25;;;;;;;15.00;7.03;;;;;;;9.06;100.00;100556.50;5059965;28;20044;-52
2023/03/22 04:16:54;;;;;;;15.50;7.00;;;;;;;9.06;100.00;100548.63;5054782;28;20045;-53
2023/03/22 04:19:23;;;;;;;11.95;7.22;;;;;;;9.05;100.00;100546.09;5057384;28;20502;-52
2023/03/22 04:21:51;;;;;;;13.90;6.97;;;;;;;9.02;100.00;100544.53;5056345;28;20073;-53
2023/03/22 04:24:21;;;;;;;13.02;6.53;;;;;;;9.00;100.00;100545.56;5057137;28;20098;-52
2023/03/22 04:26:51;;;;;;;11.93;6.20;;;;;;;9.00;100.00;100543.78;5056171;28;20056;-52
2023/03/22 04:29:23;;;;;;;13.43;6.55;;;;;;;8.99;100.00;100547.34;5067497;28;20048;-52
2023/03/22 04:31:52;;;;;;;11.32;6.70;;;;;;;8.92;100.00;100539.03;5064610;28;20041;-52
2023/03/22 04:34:21;;;;;;;10.85;5.90;;;;;;;8.87;100.00;100535.00;5054780;28;20666;-51
2023/03/22 04:36:49;;;;;;;13.05;6.40;;;;;;;8.85;100.00;100539.50;5059782;28;20389;-51
2023/03/22 04:39:18;;;;;;;12.82;6.20;;;;;;;8.92;100.00;100532.94;5064697;28;20057;-53
2023/03/22 04:41:47;;;;;;;11.18;6.25;;;;;;;8.87;100.00;100532.38;5074207;28;20045;-52
2023/03/22 04:44:15;;;;;;;11.52;5.38;;;;;;;8.85;100.00;100535.09;5071270;28;20040;-51
2023/03/22 04:46:45;;;;;;;10.98;5.38;;;;;;;8.88;100.00;100532.28;5071102;28;20173;-50
2023/03/22 04:49:13;;;;;;;12.35;5.63;;;;;;;8.84;100.00;100533.41;5057958;28;20036;-52
2023/03/22 04:51:42;;;;;;;12.73;5.53;;;;;;;8.86;100.00;100535.94;5052815;28;20404;-51
2023/03/22 04:54:10;;;;;;;11.70;5.07;;;;;;;8.83;100.00;100528.28;5057370;28;20079;-53
2023/03/22 04:56:39;;;;;;;13.25;6.30;;;;;;;8.78;100.00;100534.66;5055161;28;20052;-51
2023/03/22 04:59:09;;;;;;;12.77;5.80;;;;;;;8.80;100.00;100522.25;5057723;28;20431;-52
2023/03/22 05:01:39;;;;;;;11.57;5.00;;;;;;;8.78;100.00;100524.16;5054580;28;20476;-53
2023/03/22 05:04:09;;;;;;;11.40;5.00;;;;;;;8.76;100.00;100517.31;5050236;28;20076;-52
2023/03/22 05:06:38;;;;;;;10.98;4.80;;;;;;;8.68;100.00;100520.41;5053740;28;20049;-53
2023/03/22 05:09:06;;;;;;;10.90;5.65;;;;;;;8.70;100.00;100518.56;5068206;28;20476;-52
2023/03/22 05:11:35;;;;;;;13.73;5.20;;;;;;;8.68;100.00;100524.81;5062905;28;20102;-54
2023/03/22 05:14:04;;;;;;;11.25;4.63;;;;;;;8.69;100.00;100518.66;5055747;28;20092;-53
2023/03/22 05:16:33;;;;;;;13.10;5.10;;;;;;;8.65;100.00;100517.16;5056457;28;20415;-52
2023/03/22 05:19:02;;;;;;;8.55;4.55;;;;;;;8.65;100.00;100506.69;5050678;28;20060;-53
2023/03/22 05:21:35;;;;;;;12.68;5.18;;;;;;;8.63;100.00;100517.25;5055452;28;20047;-52
2023/03/22 05:24:04;;;;;;;10.23;4.57;;;;;;;8.67;100.00;100513.50;5056907;28;20045;-53
2023/03/22 05:26:36;;;;;;;10.75;4.47;;;;;;;8.70;100.00;100510.69;5056982;28;20065;-54
2023/03/22 05:29:05;;;;;;;13.50;4.67;;;;;;;8.70;100.00;100510.69;5054739;28;20064;-53
2023/03/22 05:31:34;;;;;;;10.93;4.55;;;;;;;8.69;100.00;100502.91;5059300;28;20127;-53
2023/03/22 05:34:02;;;;;;;10.00;5.88;;;;;;;8.66;100.00;100503.94;5057838;28;20102;-50
2023/03/22 05:36:35;;;;;;;9.88;4.70;;;;;;;8.65;100.00;100501.44;5050879;28;20041;-53
2023/03/22 05:39:04;;;;;;;8.90;4.43;;;;;;;8.67;100.00;100505.66;5056467;28;20043;-52
2023/03/22 05:41:33;;;;;;;10.95;4.13;;;;;;;8.70;100.00;100504.59;5051508;28;20041;-53
2023/03/22 05:44:04;;;;;;;10.85;4.32;;;;;;;8.66;100.00;100497.84;5058330;28;20056;-52
2023/03/22 05:46:33;;;;;;;8.68;4.03;;;;;;;8.66;100.00;100503.09;5056168;28;20586;-52
2023/03/22 05:49:01;;;;;;;11.63;4.63;;;;;;;8.65;100.00;100510.13;5053173;28;20068;-54
2023/03/22 05:51:30;;;;;;;11.00;4.50;;;;;;;8.66;100.00;100508.34;5056427;28;20454;-53
2023/03/22 05:53:59;;;;;;;9.10;3.65;;;;;;;8.61;100.00;100509.47;5055009;28;20120;-52
2023/03/22 05:56:28;;;;;;;9.95;3.63;;;;;;;8.65;100.00;100511.91;5054835;28;20456;-52
2023/03/22 05:58:57;;;;;;;10.18;4.50;;;;;;;8.65;100.00;100502.25;5051753;28;20050;-53
2023/03/22 06:01:25;;;;;;;12.70;4.32;;;;;;;8.68;100.00;100496.00;5056815;28;20071;-52
2023/03/22 06:03:54;;;;;;;9.57;3.78;;;;;;;8.61;100.00;100495.53;5056916;28;20048;-52
2023/03/22 06:06:22;;;;;;;8.88;3.72;;;;;;;8.63;100.00;100493.66;5056099;28;20048;-52
2023/03/22 06:08:51;;;;;;;9.73;3.40;;;;;;;8.72;100.00;100503.56;5062630;28;20082;-49
2023/03/22 06:11:21;;;;;;;11.07;3.83;;;;;;;8.68;100.00;100507.31;5061853;28;20127;-51
2023/03/22 06:13:50;;;;;;;10.18;3.22;;;;;;;8.63;100.00;100504.97;5065991;28;20047;-50
2023/03/22 06:16:18;;;;;;;10.88;3.92;;;;;;;8.67;100.00;100504.78;5055772;28;20047;-52
2023/03/22 06:18:47;;;;;;;10.57;3.63;;;;;;;8.61;100.00;100496.34;5059399;28;20059;-49
2023/03/22 06:21:15;;;;;;;11.73;3.67;;;;;;;8.58;100.00;100498.34;5062238;28;20102;-51
2023/03/22 06:23:44;;;;;;;14.90;3.75;;;;;;;8.61;100.00;100493.72;5054982;28;20091;-52
2023/03/22 06:26:12;;;;;;;11.85;3.20;;;;;;;8.62;100.00;100498.03;5055133;28;20053;-51
2023/03/22 06:28:42;;;;;;;9.30;3.53;;;;;;;8.67;100.00;100504.78;5051460;28;20052;-50
2023/03/22 06:31:11;;;;;;;8.60;3.58;;;;;;;8.66;100.00;100500.47;5049991;28;20037;-50
2023/03/22 06:33:39;;;;;;;11.80;3.40;;;;;;;8.65;100.00;100501.44;5048680;28;20059;-51
2023/03/22 06:36:08;;;;;;;10.98;3.70;;;;;;;8.70;100.00;100488.84;5057909;28;20076;-54
2023/03/22 06:38:37;;;;;;;12.52;3.40;;;;;;;8.69;100.00;100490.66;5069106;28;20083;-48
2023/03/22 06:41:05;;;;;;;8.82;3.30;;;;;;;8.71;100.00;100493.16;5068704;28;20049;-51
2023/03/22 06:43:34;;;;;;;11.00;3.47;;;;;;;8.65;100.00;100491.78;5060385;28;20047;-51
2023/03/22 06:46:04;;;;;;;13.93;4.03;;;;;;;8.68;100.00;100496.81;5064565;28;20056;-51
2023/03/22 06:48:33;;;;;;;13.93;3.88;;;;;;;8.66;100.00;100498.72;5052975;28;20042;-50
2023/03/22 06:51:02;;;;;;;20.08;4.20;;;;;;;8.68;100.00;100498.59;5052674;28;20110;-50
2023/03/22 06:53:30;;;;;;;10.52;3.10;;;;;;;8.75;100.00;100497.28;5060384;28;20048;-47
2023/03/22 06:55:59;;;;;;;11.15;3.28;;;;;;;8.76;100.00;100496.34;5070142;28;20063;-50
2023/03/22 06:58:27;;;;;;;11.48;3.42;;;;;;;8.92;100.00;100493.59;5072181;28;20127;-48
2023/03/22 07:00:56;;;;;;;9.07;2.97;;;;;;;8.89;100.00;100493.78;5053402;28;20161;-49
2023/03/22 07:03:26;;;;;;;8.40;2.85;;;;;;;9.00;100.00;100495.72;5054418;28;20075;-50
2023/03/22 07:06:01;;;;;;;8.07;2.95;;;;;;;9.05;100.00;100491.03;5052794;28;20414;-50
2023/03/22 07:08:30;;;;;;;6.47;2.80;;;;;;;9.10;100.00;100492.41;5054990;28;20032;-51
2023/03/22 07:10:59;;;;;;;12.98;3.17;;;;;;;9.13;100.00;100494.00;5054402;28;20071;-51
2023/03/22 07:13:27;;;;;;;11.02;3.22;;;;;;;9.26;100.00;100494.88;5050738;28;20118;-51
2023/03/22 07:15:57;;;;;;;9.40;3.22;;;;;;;9.33;100.00;100492.69;5050598;28;21526;-51
2023/03/22 07:18:28;;;;;;;14.05;3.70;;;;;;;9.34;100.00;100501.41;5057201;28;20528;-48
2023/03/22 07:20:57;;;;;;;10.98;3.00;;;;;;;9.43;100.00;100490.31;5048998;28;20045;-50
2023/03/22 07:23:25;;;;;;;8.38;2.88;;;;;;;9.46;100.00;100496.22;5050165;28;20077;-52
2023/03/22 07:25:54;;;;;;;10.82;3.40;;;;;;;9.51;100.00;100502.94;5056055;28;20037;-51
2023/03/22 07:28:23;;;;;;;8.35;3.20;;;;;;;9.57;100.00;100499.88;5050501;28;20605;-52
2023/03/22 07:31:00;;;;;;;10.82;3.33;;;;;;;9.62;100.00;100498.63;5049178;28;20041;-53
2023/03/22 07:33:29;;;;;;;11.27;3.05;;;;;;;9.68;100.00;100488.69;5047819;28;20064;-50
2023/03/22 07:35:58;;;;;;;7.07;3.05;;;;;;;9.72;100.00;100493.63;5050255;28;20675;-50
2023/03/22 07:38:27;;;;;;;12.60;3.75;;;;;;;9.78;100.00;100487.97;5057674;28;20147;-51
2023/03/22 07:40:55;;;;;;;9.75;3.33;;;;;;;9.77;100.00;100485.44;5057351;28;20067;-51
2023/03/22 07:43:24;;;;;;;11.63;3.70;;;;;;;9.81;100.00;100492.16;5058975;28;20457;-51
2023/03/22 07:45:53;;;;;;;14.05;3.70;;;;;;;9.79;100.00;100494.91;5059048;28;20463;-50
2023/03/22 07:48:22;;;;;;;8.63;3.13;;;;;;;9.78;100.00;100493.22;5057377;28;20482;-52
2023/03/22 07:50:56;;;;;;;13.10;4.40;;;;;;;9.79;100.00;100489.66;5055178;28;20041;-51
2023/03/22 07:53:25;;;;;;;10.27;3.88;;;;;;;9.82;100.00;100494.69;5054954;28;20073;-48
2023/03/22 07:55:53;;;;;;;13.80;3.72;;;;;;;9.83;100.00;100498.16;5057723;28;20143;-51
2023/03/22 07:58:22;;;;;;;10.73;4.07;;;;;;;9.85;100.00;100492.81;5057090;28;20128;-50
2023/03/22 08:00:50;;;;;;;10.73;3.92;;;;;;;9.86;100.00;100495.31;5057442;28;20368;-49
2023/03/22 08:03:20;;;;;;;11.57;3.92;;;;;;;9.93;100.00;100501.84;5061889;28;20466;-49
2023/03/22 08:05:50;;;;;;;10.30;3.55;;;;;;;9.95;100.00;100494.72;5059845;28;20473;-48
2023/03/22 08:08:20;;;;;;;9.73;3.58;;;;;;;9.96;100.00;100503.41;5060909;28;20080;-50
2023/03/22 08:10:50;;;;;;;8.77;3.63;;;;;;;10.00;100.00;100501.44;5059984;28;20515;-49
2023/03/22 08:13:18;;;;;;;8.40;3.40;;;;;;;10.03;100.00;100499.41;5057194;28;20475;-49
2023/03/22 08:15:47;;;;;;;11.45;3.55;;;;;;;10.12;100.00;100490.91;5059336;28;20053;-51
2023/03/22 08:18:15;;;;;;;13.40;3.28;;;;;;;10.14;100.00;100496.91;5058570;28;20041;-50
2023/03/22 08:20:44;;;;;;;13.95;4.00;;;;;;;10.17;100.00;100501.13;5053251;28;20119;-49
2023/03/22 08:23:14;;;;;;;8.95;3.65;;;;;;;10.23;100.00;100495.44;5058364;28;20052;-60
2023/03/22 08:25:44;;;;;;;11.95;3.42;;;;;;;10.21;100.00;100493.84;5059648;28;20140;-60
2023/03/22 08:28:14;;;;;;;16.33;4.35;;;;;;;10.26;100.00;100489.94;5059915;28;20067;-61
2023/03/22 08:30:43;;;;;;;8.10;3.53;;;;;;;10.37;100.00;100483.16;5065161;28;20509;-61
2023/03/22 08:33:12;;;;;;;7.95;3.65;;;;;;;10.47;100.00;100481.53;5071937;28;20389;-61
2023/03/22 08:35:41;;;;;;;11.98;4.20;;;;;;;10.46;100.00;100495.66;5053569;28;20057;-61
2023/03/22 08:38:09;;;;;;;10.77;3.55;;;;;;;10.48;100.00;100497.25;5076288;28;20484;-61
2023/03/22 08:40:37;;;;;;;13.55;4.03;;;;;;;10.55;100.00;100507.31;5078099;28;20102;-61
2023/03/22 08:43:07;;;;;;;11.93;3.75;;;;;;;10.61;100.00;100501.63;5078210;28;20041;-61
2023/03/22 08:45:36;;;;;;;8.77;4.03;;;;;;;10.62;100.00;100504.16;5077912;28;20049;-61
2023/03/22 08:48:05;;;;;;;11.35;4.70;;;;;;;10.65;100.00;100496.03;5077813;28;20458;-61
2023/03/22 08:50:36;;;;;;;14.02;4.38;;;;;;;10.77;100.00;100494.31;5073791;28;20380;-61
2023/03/22 08:53:04;;;;;;;11.60;4.15;;;;;;;10.75;100.00;100488.31;5072208;28;20544;-61
2023/03/22 08:55:34;;;;;;;11.55;4.35;;;;;;;10.77;100.00;100493.47;5071590;28;20052;-61
2023/03/22 08:58:03;;;;;;;8.18;3.88;;;;;;;10.80;100.00;100491.47;5074523;28;20059;-61
2023/03/22 09:00:33;;;;;;;12.32;4.25;;;;;;;10.91;100.00;100489.88;5073019;28;20048;-61
2023/03/22 09:03:15;;;;;;;10.95;3.92;;;;;;;10.97;100.00;100482.34;5074801;28;20052;-61
2023/03/22 09:05:46;;;;;;;11.45;3.88;;;;;;;11.02;100.00;100483.84;5074797;28;20051;-61
2023/03/22 09:08:15;;;;;;;11.48;3.47;;;;;;;11.06;100.00;100487.91;5074552;28;20123;-61
2023/03/22 09:10:50;;;;;;;10.55;3.53;;;;;;;11.16;100.00;100487.09;5072889;28;20049;-61
2023/03/22 09:13:19;;;;;;;14.25;3.83;;;;;;;11.25;100.00;100496.13;5071321;28;20082;-61
2023/03/22 09:15:50;;;;;;;8.82;3.25;;;;;;;11.38;100.00;100489.97;5071048;28;20462;-61
2023/03/22 09:18:19;;;;;;;10.77;2.83;;;;;;;11.41;100.00;100484.47;5073635;28;20475;-61
2023/03/22 09:20:47;;;;;;;10.93;2.90;;;;;;;11.50;100.00;100479.34;5074226;28;20044;-61
2023/03/22 09:23:15;;;;;;;12.68;3.53;;;;;;;11.60;100.00;100481.28;5074534;28;20044;-61
2023/03/22 09:25:43;;;;;;;12.00;2.97;;;;;;;11.70;100.00;100474.38;5074378;28;20071;-61
2023/03/22 09:28:11;;;;;;;9.77;3.15;;;;;;;11.75;100.00;100474.03;5073254;28;20056;-61
2023/03/22 09:30:40;;;;;;;8.82;2.70;;;;;;;11.88;100.00;100474.78;5074488;28;20345;-61
2023/03/22 09:33:10;;;;;;;8.98;2.55;;;;;;;11.84;100.00;100470.69;5072952;28;20055;-62
2023/03/22 09:35:41;;;;;;;11.38;3.05;;;;;;;11.86;100.00;100478.47;5074370;28;20040;-61
2023/03/22 09:38:11;;;;;;;11.68;2.63;;;;;;;11.93;100.00;100484.94;5074076;28;20048;-61
2023/03/22 09:40:46;;;;;;;10.90;2.47;;;;;;;11.93;100.00;100461.25;5073700;28;20056;-61
2023/03/22 09:43:18;;;;;;;8.20;2.60;;;;;;;11.90;100.00;100478.16;5071142;28;20059;-61
2023/03/22 09:45:49;;;;;;;8.70;2.40;;;;;;;11.87;100.00;100475.72;5070359;28;20414;-61
2023/03/22 09:48:22;;;;;;;10.07;2.28;;;;;;;11.99;100.00;100472.19;5072428;28;20060;-61
2023/03/22 09:50:53;;;;;;;9.43;3.13;;;;;;;11.89;100.00;100471.19;5070461;28;20071;-61
2023/03/22 09:53:24;;;;;;;10.23;2.30;;;;;;;11.89;100.00;100479.09;5072670;28;20051;-61
2023/03/22 09:56:00;;;;;;;11.48;2.53;;;;;;;11.87;100.00;100482.81;5073810;28;20527;-61
2023/03/22 09:58:33;;;;;;;7.95;2.33;;;;;;;11.77;100.00;100474.75;5070733;28;20357;-61
2023/03/22 10:01:06;;;;;;;9.00;2.20;;;;;;;11.78;100.00;100469.38;5069593;28;20040;-61
2023/03/22 10:04:01;;;;;;;8.50;2.08;;;;;;;11.65;100.00;100461.53;5063832;28;20044;-61
2023/03/22 10:06:30;;;;;;;9.77;1.95;;;;;;;11.71;100.00;100481.34;5058225;28;20044;-61
2023/03/22 10:09:07;;;;;;;7.75;2.00;;;;;;;11.65;100.00;100471.25;5055500;28;20045;-61
2023/03/22 10:11:44;;;;;;;8.02;2.03;;;;;;;11.59;100.00;100474.34;5055679;28;20060;-61
2023/03/22 10:14:27;;;;;;;12.10;2.75;;;;;;;11.65;100.00;100463.34;5067181;28;20475;-61
2023/03/22 10:16:59;;;;;;;8.02;1.88;;;;;;;11.71;100.00;100470.81;5058925;28;20056;-61
2023/03/22 10:19:34;;;;;;;7.07;1.67;;;;;;;11.66;100.00;100473.78;5051287;28;20397;-62
2023/03/22 10:22:06;;;;;;;9.80;2.20;;;;;;;11.70;100.00;100474.38;5072611;28;20094;-61
2023/03/22 10:24:38;;;;;;;11.13;2.58;;;;;;;11.76;100.00;100478.34;5057530;28;20055;-62
2023/03/22 10:27:15;;;;;;;11.73;2.30;;;;;;;11.82;100.00;100462.06;5057311;28;20499;-62
2023/03/22 10:29:47;;;;;;;8.43;1.88;;;;;;;11.71;100.00;100462.03;5051670;28;20473;-61
2023/03/22 10:32:17;;;;;;;9.90;2.28;;;;;;;11.64;100.00;100465.16;5061701;28;20041;-62
2023/03/22 10:34:48;;;;;;;9.63;1.83;;;;;;;11.64;100.00;100470.44;5072810;28;20555;-62
2023/03/22 10:37:20;;;;;;;9.38;2.10;;;;;;;11.59;100.00;100466.44;5072989;28;20431;-61
2023/03/22 10:39:50;;;;;;;7.18;2.13;;;;;;;11.55;100.00;100467.63;5056971;28;20057;-60
2023/03/22 10:42:21;;;;;;;6.85;1.73;;;;;;;11.53;100.00;100467.75;5070143;28;20054;-60
2023/03/22 10:44:53;;;;;;;9.38;2.10;;;;;;;11.56;100.00;100477.22;5056643;28;20056;-60
2023/03/22 10:47:32;;;;;;;8.00;1.90;;;;;;;11.47;100.00;100474.31;5068382;28;20056;-60
2023/03/22 10:50:04;;;;;;;11.32;2.55;;;;;;;11.38;100.00;100482.06;5072943;28;20049;-60
2023/03/22 10:52:42;;;;;;;7.15;1.80;;;;;;;11.23;100.00;100476.13;5056107;28;20667;-60
2023/03/22 10:55:13;;;;;;;10.70;2.13;;;;;;;11.19;100.00;100472.88;5055582;28;20053;-59
2023/03/22 10:57:42;;;;;;;5.82;1.70;;;;;;;11.16;100.00;100481.00;5054585;28;20499;-59
2023/03/22 11:00:16;;;;;;;7.57;2.25;;;;;;;11.16;100.00;100483.66;5054922;28;20106;-59
2023/03/22 11:02:52;;;;;;;9.60;2.10;;;;;;;11.26;100.00;100489.06;5056229;28;20036;-59
2023/03/22 11:05:24;;;;;;;12.07;2.60;;;;;;;11.13;100.00;100482.06;5057332;28;20183;-59
2023/03/22 11:07:53;;;;;;;9.20;2.50;;;;;;;11.12;100.00;100485.66;5071041;28;20195;-59
2023/03/22 11:10:31;;;;;;;11.48;2.50;;;;;;;11.07;100.00;100486.94;5060260;28;20099;-58
2023/03/22 11:13:20;;;;;;;8.93;2.25;;;;;;;11.01;100.00;100487.41;5060897;28;20435;-60
2023/03/22 11:15:55;;;;;;;8.38;1.98;;;;;;;10.99;100.00;100490.97;5056800;28;21531;-58
2023/03/22 11:18:25;;;;;;;12.30;2.23;;;;;;;10.99;100.00;100490.97;5065518;28;20063;-58
2023/03/22 11:20:58;;;;;;;8.70;2.35;;;;;;;10.99;100.00;100490.97;5052569;28;20474;-59
2023/03/22 11:23:28;;;;;;;7.18;2.00;;;;;;;10.97;100.00;100481.50;5052337;28;20143;-60
2023/03/22 11:25:59;;;;;;;9.85;2.83;;;;;;;10.96;100.00;100488.59;5054799;28;20044;-60
2023/03/22 11:28:28;;;;;;;7.75;2.35;;;;;;;10.88;100.00;100476.91;5052375;28;20041;-60
2023/03/22 11:31:04;;;;;;;12.38;2.40;;;;;;;11.00;100.00;100483.91;5056474;28;20067;-60
2023/03/22 11:33:33;;;;;;;6.47;2.00;;;;;;;10.90;100.00;100491.63;5056267;28;20051;-60
2023/03/22 11:36:17;;;;;;;6.88;1.95;;;;;;;10.85;100.00;100485.88;5059845;28;20048;-60